Date,TemperatureHighF,TemperatureAvgF,TemperatureLowF,DewpointHighF,DewpointAvgF,DewpointLowF,HumidityHigh,HumidityAvg,HumidityLow,PressureMaxIn,PressureMinIn,WindSpeedMaxMPH,WindSpeedAvgMPH,GustSpeedMaxMPH,PrecipitationSumIn
2013-1-1,31.1,24.3,8.0,24.7,11.4,-4.9,78,58,44,29.93,29.69,6,1,22,0.00
2013-1-2,26.2,14.0,1.3,14.7,3.2,-10.7,90,63,47,30.12,29.87,5,0,15,0.00
2013-1-3,19.8,8.1,-2.7,7.2,-4.4,-13.1,82,58,36,30.15,29.96,3,0,9,0.00
2013-1-4,36.5,25.3,8.0,26.7,15.8,3.6,86,69,51,29.95,29.78,7,0,16,0.02
2013-1-5,36.9,28.9,18.2,22.8,15.8,8.0,91,60,41,30.25,29.81,6,0,16,0.05
2013-1-6,38.9,28.4,17.9,29.8,21.2,14.6,87,75,54,30.20,29.92,3,0,9,0.00
2013-1-7,33.0,26.0,14.6,30.0,17.3,5.4,92,71,42,30.39,29.96,2,0,13,0.00
2013-1-8,39.5,25.4,12.7,29.8,17.2,9.3,96,74,40,30.38,30.25,6,0,10,0.00
2013-1-9,39.6,28.6,18.5,37.5,24.0,15.9,100,83,59,30.42,29.97,3,0,17,0.00
2013-1-10,43.2,35.7,29.1,26.6,21.0,14.6,71,55,46,30.55,30.02,7,1,21,0.00
2013-1-11,37.8,31.4,23.4,34.2,26.0,21.2,100,81,56,30.54,30.22,0,0,5,0.16
2013-1-12,40.3,35.7,32.6,39.9,35.3,30.9,100,98,93,30.23,30.13,0,0,0,0.07
2013-1-13,43.0,38.5,34.0,43.0,38.4,34.0,100,100,93,30.17,29.98,0,0,7,0.00
2013-1-14,52.2,40.2,32.9,48.8,32.5,15.9,100,77,45,30.29,29.88,5,0,17,0.01
2013-1-15,37.5,31.9,27.2,29.6,21.9,16.6,95,68,45,30.35,30.24,1,0,7,0.00
2013-1-16,33.8,30.6,26.7,32.3,28.6,23.8,100,92,84,30.25,29.81,0,0,0,0.00
2013-1-17,37.7,29.1,22.3,31.9,19.8,5.1,100,70,44,30.12,29.82,5,0,12,0.17
2013-1-18,22.3,15.6,9.4,5.9,-4.4,-11.5,60,41,30,30.39,30.06,6,0,15,0.00
2013-1-19,40.8,29.1,17.0,22.2,14.6,4.4,66,55,42,30.32,29.85,5,0,15,0.11
2013-1-20,46.4,33.3,22.5,32.4,17.6,2.3,78,54,27,29.93,29.53,10,2,23,0.04
2013-1-21,26.5,20.9,14.7,20.6,4.2,-5.2,92,51,34,30.06,29.79,5,0,17,0.00
2013-1-22,22.9,16.0,4.9,20.9,6.1,-10.1,92,67,34,30.03,29.76,7,0,19,0.01
2013-1-23,11.7,3.8,-5.6,2.3,-10.7,-20.1,86,52,30,30.11,30.02,7,1,17,0.00
2013-1-24,16.7,4.6,-7.9,-5.6,-13.9,-20.9,58,42,29,30.22,30.05,7,2,20,0.00
2013-1-25,19.7,11.8,2.6,8.4,-7.3,-11.9,78,42,27,30.30,30.05,7,0,16,0.00
2013-1-26,21.1,13.4,7.4,10.7,-0.7,-13.7,85,56,29,30.22,30.01,5,0,15,0.00
2013-1-27,27.6,16.2,8.6,2.3,-4.9,-14.5,63,41,21,30.46,30.21,5,0,15,0.00
2013-1-28,27.3,19.0,7.8,22.0,10.7,-9.4,92,72,31,30.45,30.03,0,0,0,0.00
2013-1-29,35.5,27.8,17.2,32.5,24.5,15.6,100,88,72,30.20,30.05,1,0,5,0.19
2013-1-30,44.9,36.7,31.8,44.9,36.3,29.7,100,99,92,30.14,29.42,0,0,3,0.21
2013-1-31,53.8,39.6,26.2,51.9,27.5,2.8,100,66,34,29.55,28.91,10,3,34,0.90
2013-2-1,28.6,23.9,17.6,17.5,6.6,0.2,79,48,33,30.07,29.55,8,1,19,0.00
2013-2-2,26.2,20.7,12.8,6.9,3.7,0.1,69,48,36,30.23,30.02,5,0,12,0.00
2013-2-3,31.4,22.8,13.5,17.8,12.4,9.2,90,65,48,30.03,29.72,3,0,8,0.00
2013-2-4,27.5,21.1,13.6,15.0,3.5,-5.3,73,48,29,29.90,29.71,8,1,21,0.00
2013-2-5,29.2,18.8,7.7,11.7,4.2,-5.5,86,55,31,30.02,29.89,2,0,10,0.00
2013-2-6,34.5,26.2,18.7,27.6,14.6,-2.7,100,64,33,30.31,29.92,7,0,17,0.00
2013-2-7,28.8,19.2,10.0,3.5,-5.2,-9.0,45,34,22,30.53,30.31,2,0,9,0.00
2013-2-8,22.1,18.0,15.1,14.4,9.5,-4.3,87,71,32,30.49,29.81,7,1,15,0.00
2013-2-9,20.6,15.2,10.3,14.8,7.7,-5.3,92,73,48,30.22,29.75,8,2,25,0.00
2013-2-10,35.2,18.5,4.8,12.0,-0.2,-9.0,86,47,21,30.41,30.22,7,0,16,0.16
2013-2-11,28.8,22.8,11.7,28.8,20.1,7.5,100,89,70,30.33,29.64,0,0,0,0.00
2013-2-12,42.5,34.9,27.7,31.4,25.9,22.2,100,71,50,29.86,29.61,6,1,16,0.23
2013-2-13,42.5,32.6,26.1,25.7,20.8,11.0,83,63,42,29.87,29.75,3,0,12,0.00
2013-2-14,43.5,31.1,24.7,28.3,21.1,8.3,95,69,37,29.98,29.73,2,0,11,0.00
2013-2-15,49.1,32.1,20.1,37.4,22.9,12.5,95,72,38,29.98,29.88,7,0,14,0.00
2013-2-16,40.5,32.2,23.0,34.5,21.6,5.7,96,67,47,29.98,29.76,3,0,14,0.00
2013-2-17,23.1,18.4,12.3,14.2,4.1,-2.0,85,54,41,29.77,29.45,8,2,25,0.00
2013-2-18,27.7,18.2,9.1,4.4,-3.2,-11.2,58,40,25,30.12,29.69,8,2,22,0.00
2013-2-19,41.6,28.4,13.8,34.7,14.7,-4.5,100,59,31,30.17,29.58,3,0,9,0.13
2013-2-20,34.5,28.8,22.5,34.4,17.9,9.7,100,65,50,29.75,29.55,7,2,20,0.00
2013-2-21,31.6,23.1,18.7,16.0,10.8,5.8,70,59,52,30.25,29.75,7,1,22,0.00
2013-2-22,41.0,29.2,18.3,23.6,17.8,12.6,91,65,40,30.41,30.25,5,0,13,0.00
2013-2-23,36.0,31.7,27.4,32.8,27.1,19.3,100,83,68,30.33,29.96,0,0,0,0.04
2013-2-24,37.8,33.0,31.3,36.3,31.2,29.2,100,93,86,29.96,29.76,3,0,9,0.17
2013-2-25,38.5,31.4,26.0,37.3,29.8,23.8,100,94,74,30.24,29.91,1,0,8,0.28
2013-2-26,41.7,34.7,30.0,38.7,30.9,25.7,100,87,66,30.35,30.19,5,0,9,0.01
2013-2-27,34.7,32.2,31.0,32.8,29.0,24.3,95,88,74,30.20,29.66,5,0,11,0.10
2013-2-28,41.9,34.3,30.6,36.2,30.5,27.5,96,86,70,29.65,29.56,0,0,0,1.40
2013-3-1,39.9,34.2,30.7,35.7,28.2,22.2,100,80,63,29.71,29.56,3,0,13,0.28
2013-3-2,40.8,33.4,29.5,28.6,24.4,18.5,84,70,56,29.70,29.65,3,0,14,0.05
2013-3-3,39.7,32.7,27.6,35.7,26.6,21.4,92,79,63,29.67,29.59,3,0,10,0.02
2013-3-4,36.6,30.5,26.5,28.3,21.7,17.3,86,70,63,29.79,29.63,6,1,18,0.00
2013-3-5,45.2,33.6,26.5,30.5,23.4,18.4,84,67,50,30.10,29.79,3,0,13,0.00
2013-3-6,38.4,33.8,30.8,31.7,27.2,22.5,88,77,61,30.19,30.08,12,1,21,0.06
2013-3-7,35.2,31.3,29.1,29.9,25.8,21.9,92,80,66,30.17,30.07,7,0,14,0.06
2013-3-8,40.3,33.1,29.4,29.0,21.6,6.8,92,66,29,30.22,30.03,2,0,9,0.14
2013-3-9,52.1,35.3,25.3,30.3,17.6,-5.9,96,57,13,30.38,30.21,2,0,9,0.00
2013-3-10,50.7,35.0,21.5,34.6,27.2,19.3,96,75,54,30.42,30.28,2,0,7,0.00
2013-3-11,48.9,39.3,32.9,38.3,30.7,21.8,95,73,49,30.31,30.14,5,0,13,0.00
2013-3-12,44.0,39.4,35.6,42.9,38.4,31.9,100,96,82,30.15,29.73,0,0,6,0.68
2013-3-13,47.7,37.4,28.9,39.7,26.8,13.5,100,68,42,29.80,29.73,5,0,14,0.00
2013-3-14,35.1,28.3,19.3,28.5,16.2,3.8,92,62,42,29.84,29.71,7,1,20,0.00
2013-3-15,40.1,26.5,16.0,29.1,11.3,0.8,92,55,29,29.86,29.62,6,0,15,0.00
2013-3-16,37.1,29.1,21.3,25.2,12.5,5.1,84,51,34,29.89,29.70,5,0,12,0.00
2013-3-17,34.7,24.3,16.2,17.8,6.2,-3.6,84,49,27,30.33,29.89,6,0,17,0.00
2013-3-18,38.6,25.1,7.5,19.9,2.2,-4.9,79,41,19,30.46,30.23,2,0,7,0.00
2013-3-19,32.5,28.9,24.6,31.1,26.0,17.6,100,89,63,30.23,29.71,5,0,15,0.01
2013-3-20,38.3,28.1,20.9,24.4,18.2,8.0,96,68,47,29.79,29.70,6,0,16,0.28
2013-3-21,43.9,27.4,12.8,21.1,12.3,2.9,95,57,28,29.80,29.60,5,0,12,0.09
2013-3-22,43.8,30.8,20.0,24.0,18.7,11.1,91,63,39,29.74,29.64,5,0,15,0.00
2013-3-23,41.6,31.3,21.6,21.9,17.2,12.1,84,57,38,29.79,29.66,7,1,18,0.00
2013-3-24,46.3,34.8,26.5,25.9,20.2,14.0,71,56,41,29.86,29.75,5,0,14,0.00
2013-3-25,43.9,33.7,23.9,30.8,23.9,18.6,91,69,48,29.81,29.57,5,0,12,0.00
2013-3-26,48.9,37.6,30.8,29.5,19.6,6.0,75,51,28,29.81,29.60,5,0,13,0.00
2013-3-27,51.1,37.3,26.7,31.1,23.1,16.2,88,59,34,29.92,29.78,6,1,15,0.00
2013-3-28,48.6,39.0,33.9,38.1,29.7,21.0,100,71,47,30.05,29.92,5,0,10,0.00
2013-3-29,52.8,40.1,33.2,34.4,28.2,22.2,88,64,39,30.08,30.02,3,0,13,0.00
2013-3-30,54.7,39.3,29.7,35.4,19.3,0.5,88,51,19,30.13,30.03,5,0,12,0.00
2013-3-31,54.9,39.8,25.2,34.7,20.6,11.4,88,53,20,30.14,29.81,7,1,18,0.12
2013-4-1,55.9,40.0,29.8,40.9,29.7,3.8,100,70,30,29.80,29.53,8,1,27,0.43
2013-4-2,37.1,30.1,24.7,20.5,7.2,1.3,53,38,27,29.90,29.78,8,2,22,0.00
2013-4-3,44.4,32.1,25.0,13.6,5.3,-4.7,55,34,16,30.16,29.90,8,2,26,0.00
2013-4-4,54.3,37.2,26.1,14.3,8.2,-0.1,50,33,14,30.30,30.01,7,1,15,0.00
2013-4-5,56.2,41.4,32.2,26.0,16.7,5.9,61,39,19,30.01,29.70,6,0,15,0.00
2013-4-6,44.6,32.5,25.3,16.7,4.6,-9.6,51,33,15,30.34,29.92,7,1,17,0.01
2013-4-7,56.2,38.7,24.1,28.7,19.8,8.2,80,50,21,30.34,29.96,8,1,23,0.00
2013-4-8,63.0,46.0,33.3,42.1,29.3,12.2,100,58,24,30.11,29.97,3,0,11,0.00
2013-4-9,63.6,48.5,37.9,51.3,37.7,27.8,100,68,42,30.09,29.92,5,0,15,0.25
2013-4-10,58.0,48.2,41.8,50.9,42.3,33.5,100,82,57,30.03,29.88,2,0,8,0.82
2013-4-11,44.8,43.9,42.3,44.7,43.3,42.1,100,98,93,29.94,29.90,0,0,0,0.05
2013-4-13,52.9,42.9,36.7,47.6,30.5,25.8,100,62,51,29.96,29.81,5,0,10,0.24
2013-4-14,50.3,40.5,32.1,37.5,28.2,18.7,100,65,37,30.24,29.93,6,1,16,0.00
2013-4-15,60.7,43.9,28.2,35.2,30.2,25.7,96,64,32,30.40,30.24,7,0,12,0.00
2013-4-16,66.8,49.6,34.4,48.5,38.4,29.4,82,67,41,30.40,30.05,9,2,25,0.02
2013-4-17,63.8,51.1,37.4,48.4,28.8,16.0,86,46,25,30.37,30.07,6,1,14,0.01
2013-4-18,63.7,48.0,30.9,37.9,29.1,21.5,92,53,26,30.48,30.15,7,1,17,0.00
2013-4-19,72.6,61.1,50.9,60.2,51.7,32.9,93,72,50,30.15,29.62,9,2,27,0.17
2013-4-20,59.5,48.1,36.1,59.4,33.0,14.0,100,61,29,30.25,29.64,9,2,24,0.27
2013-4-21,52.9,39.7,31.1,26.7,14.0,2.1,74,38,16,30.70,30.25,7,1,13,0.00
2013-4-22,57.2,40.7,28.3,34.6,24.3,11.0,95,58,22,30.80,30.64,7,0,16,0.00
2013-4-23,39.9,36.9,31.5,38.4,33.7,29.4,96,88,78,30.64,30.19,3,0,9,0.01
2013-4-24,76.0,55.6,39.1,52.2,39.1,23.7,96,60,21,30.18,29.78,6,1,14,0.00
2013-4-25,62.6,51.2,38.0,47.1,28.9,11.9,86,46,20,30.31,29.78,7,1,24,0.00
2013-4-26,63.5,46.3,30.6,38.7,28.6,22.6,92,55,28,30.45,30.31,3,0,13,0.00
2013-4-27,69.0,50.5,32.8,41.4,31.4,22.3,96,55,23,30.46,30.29,5,0,9,0.00
2013-4-28,73.4,53.6,35.0,42.4,33.5,27.4,91,52,23,30.37,30.20,7,0,10,0.00
2013-4-29,74.7,56.1,40.9,44.4,34.9,26.2,82,47,29,30.30,30.18,7,0,17,0.00
2013-4-30,74.5,59.4,46.7,46.2,28.3,14.7,67,33,16,30.39,30.26,6,0,13,0.00
2013-5-1,76.4,56.1,36.6,47.1,30.1,23.9,88,44,17,30.51,30.39,5,0,12,0.00
2013-5-2,82.6,57.8,42.1,53.6,37.1,17.4,92,52,19,30.53,30.35,6,0,15,0.00
2013-5-3,70.8,52.9,39.0,51.3,38.9,31.6,95,62,37,30.58,30.41,8,0,10,0.00
2013-5-4,74.8,54.0,39.3,52.6,38.9,32.0,100,63,27,30.41,30.27,7,0,11,0.00
2013-5-5,72.6,52.1,33.0,47.0,35.9,28.8,100,61,22,30.37,30.24,6,0,10,0.00
2013-5-6,78.3,55.0,33.8,48.9,37.1,20.1,100,62,15,30.31,30.14,5,0,9,0.00
2013-5-7,82.7,63.0,43.7,60.8,44.4,25.3,100,61,14,30.21,30.08,5,0,9,0.00
2013-5-8,74.0,61.6,50.4,62.8,55.0,49.3,100,81,55,30.24,30.09,5,0,14,0.15
2013-5-9,71.6,61.4,55.9,69.5,58.9,54.7,100,92,77,30.09,29.92,3,0,7,0.15
2013-5-10,80.4,64.5,51.5,59.0,52.2,42.1,100,69,33,30.00,29.92,5,0,10,0.00
2013-5-11,67.2,61.3,56.9,65.1,58.2,51.3,100,90,77,29.93,29.72,6,0,12,0.49
2013-5-12,67.7,56.4,44.3,58.0,43.4,16.9,100,66,32,29.83,29.62,6,1,21,0.02
2013-5-13,55.2,45.2,39.5,29.6,23.9,17.9,57,44,31,30.08,29.83,6,1,26,0.00
2013-5-14,58.2,46.4,36.7,38.7,27.0,16.1,95,52,24,30.10,30.02,5,0,13,0.00
2013-5-15,65.4,47.6,31.1,48.9,35.9,20.7,95,70,23,30.09,29.69,6,0,16,0.17
2013-5-16,78.2,61.3,46.3,56.8,39.3,21.6,100,56,17,29.88,29.66,8,1,21,0.00
2013-5-17,70.6,55.5,45.4,44.3,36.3,25.9,79,51,25,30.26,29.88,5,1,15,0.00
2013-5-18,75.0,56.3,38.5,49.3,39.9,25.8,96,61,20,30.36,30.25,5,0,13,0.00
2013-5-19,68.5,55.9,48.1,55.8,49.2,41.0,100,80,45,30.39,30.23,3,0,7,0.11
2013-5-20,78.4,63.8,53.6,63.3,57.2,52.3,100,81,53,30.23,29.97,3,0,12,0.02
2013-5-21,78.2,61.6,49.5,64.6,57.4,45.9,100,87,62,30.11,29.92,5,0,13,1.00
2013-5-22,63.0,55.1,49.3,60.0,53.6,47.5,100,95,82,30.06,29.93,2,0,6,0.80
2013-5-23,74.2,60.4,51.2,71.1,59.3,51.2,100,96,82,29.96,29.81,3,0,8,0.42
2013-5-24,68.0,58.5,45.6,65.1,54.4,39.6,100,87,64,29.91,29.68,6,0,14,0.20
2013-5-25,48.8,43.4,35.6,48.4,41.6,32.9,100,93,82,29.89,29.79,5,0,13,0.65
2013-5-26,56.3,45.2,36.4,41.5,35.3,29.3,100,70,48,30.12,29.76,7,1,19,0.07
2013-5-27,70.0,52.2,36.6,45.0,33.5,19.5,100,57,23,30.23,30.12,5,0,12,0.00
2013-5-28,74.8,56.1,38.2,48.6,38.4,32.2,100,59,27,30.31,30.18,3,0,7,0.00
2013-5-29,60.1,55.7,50.7,58.9,53.7,41.1,100,93,66,30.21,30.05,0,0,0,0.38
2013-5-30,82.5,67.8,56.1,66.2,55.5,46.5,100,71,37,30.13,30.05,3,0,12,0.00
2013-5-31,90.6,73.5,60.2,65.8,58.3,45.8,100,65,30,30.16,29.96,6,0,10,0.00
2013-6-1,91.3,76.3,64.2,68.4,60.1,48.1,100,63,30,30.01,29.86,3,0,14,0.00
2013-6-2,89.6,74.1,65.2,70.7,63.3,42.1,100,73,35,29.89,29.69,7,1,22,0.62
2013-6-3,78.9,66.7,55.8,68.4,57.1,35.5,100,75,37,29.89,29.79,6,0,13,0.03
2013-6-4,69.9,57.3,46.9,44.2,38.8,31.1,69,51,35,30.15,29.88,5,1,14,0.00
2013-6-5,75.9,59.6,44.8,53.0,40.5,27.3,96,57,22,30.25,30.12,3,0,9,0.00
2013-6-6,73.1,60.0,48.4,53.9,48.3,38.7,96,68,38,30.26,30.13,2,0,10,0.02
2013-6-7,57.1,52.0,49.2,53.7,49.9,44.7,96,93,74,30.16,29.92,1,0,6,1.66
2013-6-8,75.0,60.1,50.0,60.6,53.7,48.1,100,81,57,30.05,29.75,5,0,12,0.74
2013-6-9,77.4,63.7,53.6,60.4,50.4,38.5,100,66,38,30.22,30.06,5,0,10,0.00
2013-6-10,71.1,60.1,51.2,59.0,55.0,49.9,100,85,58,30.25,30.06,1,0,6,0.27
2013-6-11,58.3,55.6,53.1,56.8,53.4,48.9,100,93,75,30.06,29.64,0,0,6,1.46
2013-6-12,67.2,58.5,53.5,55.5,49.7,41.3,100,74,52,29.88,29.62,6,1,15,0.07
2013-6-13,63.1,55.4,48.8,57.3,50.6,43.8,100,86,54,29.87,29.76,1,0,5,0.25
2013-6-14,72.7,59.4,50.2,58.0,48.8,35.6,100,73,33,29.85,29.74,6,0,10,0.14
2013-6-15,77.5,62.5,50.2,59.4,43.4,30.8,100,57,25,29.99,29.85,3,0,10,0.00
2013-6-16,72.4,61.8,51.6,60.2,52.3,43.7,96,73,39,29.98,29.75,3,0,10,0.00
2013-6-17,81.9,64.7,54.6,65.0,55.9,35.3,100,77,36,29.95,29.82,6,0,16,0.10
2013-6-18,64.1,58.4,52.9,60.4,54.5,48.6,100,87,70,30.03,29.94,0,0,5,0.01
2013-6-19,75.2,60.4,50.1,61.0,45.6,29.8,100,65,29,30.20,29.98,2,0,12,0.00
2013-6-20,78.5,61.8,45.3,56.8,45.3,33.8,96,61,25,30.32,30.20,2,0,12,0.00
2013-6-21,82.8,65.9,53.1,61.0,50.8,39.6,96,64,29,30.30,30.23,5,0,10,0.00
2013-6-22,82.5,68.4,55.2,68.1,57.6,50.9,96,71,43,30.27,30.12,5,0,10,0.00
2013-6-23,86.9,72.7,63.0,72.6,64.7,56.5,100,78,51,30.19,29.98,6,0,12,0.06
2013-6-24,89.0,75.0,66.9,71.3,65.4,53.2,100,76,37,30.05,29.91,5,0,10,0.00
2013-6-25,88.0,74.5,65.5,72.5,64.6,52.3,100,75,43,29.98,29.77,5,0,13,0.21
2013-6-26,77.4,68.8,64.4,71.8,67.0,64.1,100,94,73,29.89,29.77,0,0,5,0.16
2013-6-27,75.9,67.0,62.5,70.7,64.8,60.5,100,93,77,29.91,29.82,5,0,7,0.01
2013-6-28,67.3,61.7,55.6,65.9,60.2,54.5,100,95,84,29.82,29.55,0,0,6,3.33
2013-6-29,81.5,70.5,63.1,70.9,63.4,57.0,100,80,54,29.75,29.56,5,0,13,0.34
2013-6-30,82.7,72.3,64.6,70.8,65.9,59.9,100,82,52,29.97,29.75,3,0,10,0.16
2013-7-1,75.1,70.4,66.4,72.9,68.4,63.7,100,94,73,30.11,29.97,1,0,5,0.31
2013-7-2,79.1,68.8,61.5,76.9,67.9,61.1,100,97,87,30.27,30.10,3,0,11,1.70
2013-7-3,84.3,70.7,61.2,77.1,65.2,59.6,100,85,55,30.25,30.15,3,0,11,0.54
2013-7-4,88.9,76.4,67.9,71.7,66.2,57.7,100,74,46,30.25,30.11,5,0,12,0.00
2013-7-5,90.6,78.2,69.8,74.2,66.2,58.4,96,69,45,30.20,30.07,5,0,11,0.00
2013-7-6,85.8,75.6,67.9,73.4,64.2,52.9,96,70,48,30.12,30.03,5,0,10,0.00
2013-7-7,87.9,74.4,64.8,74.3,65.4,56.7,100,77,44,30.08,29.94,2,0,8,0.01
2013-7-8,86.0,73.4,64.8,78.5,70.5,62.7,100,91,69,30.12,29.96,2,0,8,0.44
2013-7-9,73.5,68.2,63.9,68.9,65.0,60.8,100,90,73,30.17,30.10,1,0,6,0.00
2013-7-10,81.4,70.2,65.7,77.5,68.7,63.4,100,95,83,30.12,29.83,0,0,5,0.54
2013-7-11,80.4,71.3,65.2,73.0,66.3,57.0,100,86,60,30.02,29.80,2,0,8,0.03
2013-7-12,81.4,68.1,60.2,62.3,57.3,52.4,93,70,48,30.27,30.02,3,0,9,0.00
2013-7-13,79.0,67.5,57.7,64.4,59.1,53.4,96,76,57,30.37,30.27,0,0,3,0.00
2013-7-14,83.9,73.9,66.0,71.8,64.9,57.8,100,76,53,30.36,30.25,1,0,7,0.00
2013-7-15,89.2,75.2,65.7,70.1,63.7,51.4,100,71,42,30.27,30.16,3,0,10,0.00
2013-7-16,89.8,75.9,66.8,70.0,63.5,56.4,96,69,39,30.22,30.17,3,0,10,0.00
2013-7-17,90.9,77.1,65.9,70.7,64.7,56.4,100,69,42,30.23,30.02,3,0,9,0.00
2013-7-18,91.3,77.3,68.8,76.8,68.4,61.8,100,76,48,30.06,29.97,2,0,10,2.57
2013-7-19,90.9,77.9,68.0,75.3,67.8,59.3,100,75,45,29.99,29.74,6,0,14,0.26
2013-7-20,84.5,73.0,66.7,71.3,63.9,55.5,100,75,49,29.86,29.70,3,0,13,0.01
2013-7-21,82.4,70.4,62.1,67.1,62.2,57.3,100,77,54,30.05,29.86,1,0,7,0.00
2013-7-22,75.2,67.9,62.8,69.0,64.5,61.5,100,89,69,30.10,29.95,1,0,7,0.05
2013-7-23,72.4,66.3,63.0,68.0,64.1,60.9,100,93,73,29.94,29.59,0,0,3,3.12
2013-7-24,79.4,68.0,55.6,70.3,59.6,45.6,100,77,55,30.04,29.64,3,0,12,0.00
2013-7-25,73.3,61.5,51.3,58.4,50.9,43.7,83,69,52,30.16,30.04,3,0,12,0.00
2013-7-26,71.4,63.2,59.6,69.2,59.8,53.2,100,89,65,30.13,30.00,3,0,10,0.22
2013-7-27,82.1,68.1,56.4,60.9,55.2,46.4,100,67,35,30.11,30.01,3,0,8,0.00
2013-7-28,69.6,69.6,69.6,56.0,55.6,54.7,62,61,59,30.07,29.99,0,0,0,0.07
2013-7-29,83.0,71.5,63.6,76.2,60.7,56.0,96,70,56,30.11,29.99,2,0,9,0.00
2013-7-30,79.8,66.6,56.9,65.0,54.7,41.6,100,71,38,30.17,30.08,2,0,8,0.00
2013-7-31,81.0,67.1,56.0,61.0,55.3,45.2,100,70,38,30.20,30.07,0,0,6,0.00
2013-8-1,78.9,64.8,56.9,64.9,57.9,51.0,100,80,50,30.10,29.91,3,0,8,0.59
2013-8-2,80.0,68.2,60.8,68.8,58.2,42.9,100,75,36,29.91,29.83,3,0,13,0.03
2013-8-3,79.5,65.9,57.7,62.1,54.4,42.8,100,70,39,29.91,29.81,5,0,10,0.00
2013-8-4,76.3,62.9,54.8,58.3,52.3,44.7,96,71,46,29.95,29.85,5,0,13,0.00
2013-8-5,74.9,60.9,51.5,51.5,44.6,30.3,83,57,44,30.11,29.94,3,0,13,0.00
2013-8-6,78.0,61.1,46.7,57.0,40.7,25.9,72,48,38,30.20,30.11,1,0,6,0.00
2013-8-7,80.0,64.6,52.4,60.6,52.6,45.7,96,68,40,30.24,30.12,2,0,7,0.00
2013-8-8,82.0,70.6,63.4,69.7,62.3,54.6,90,76,56,30.15,30.02,3,0,10,0.00
2013-8-9,74.6,70.3,66.4,74.1,68.9,66.1,100,95,87,30.04,29.77,1,0,9,1.43
2013-8-10,79.3,67.4,57.9,67.0,53.6,35.0,100,66,32,30.08,29.84,3,0,12,0.00
2013-8-11,78.1,62.8,51.8,59.4,50.8,37.8,100,70,36,30.14,30.05,2,0,9,0.00
2013-8-12,80.0,65.1,54.4,62.0,54.0,46.6,100,72,40,30.08,29.96,2,0,8,0.00
2013-8-13,72.1,64.3,58.6,66.6,60.9,56.8,100,89,78,29.98,29.74,1,0,5,0.35
2013-8-14,72.5,61.2,52.9,64.2,50.2,41.2,100,70,44,30.01,29.72,5,0,14,0.00
2013-8-15,74.6,59.9,50.1,53.5,46.6,37.5,96,65,38,30.15,30.01,3,0,11,0.00
2013-8-16,76.7,61.4,49.9,59.7,46.2,35.7,93,60,37,30.24,30.15,1,0,8,0.00
2013-8-17,79.4,63.5,51.2,58.7,51.6,42.1,100,70,36,30.33,30.24,2,0,5,0.00
2013-8-18,74.6,64.5,54.7,61.6,56.1,50.0,100,77,50,30.32,30.13,0,0,0,0.00
2013-8-19,78.0,66.1,56.3,63.1,56.5,45.4,100,75,43,30.13,29.99,1,0,10,0.00
2013-8-20,82.8,68.8,58.7,63.8,58.0,46.0,100,73,37,30.16,30.04,2,0,6,0.00
2013-8-21,84.6,69.9,59.0,64.5,58.3,49.7,96,71,37,30.21,30.06,1,0,8,0.00
2013-8-22,84.9,71.8,60.6,66.4,60.2,49.8,100,71,37,30.08,29.85,2,0,12,0.15
2013-8-23,75.9,66.0,57.6,62.1,50.3,35.2,86,60,33,30.20,29.87,3,0,10,0.00
2013-8-24,76.7,61.0,48.4,54.4,47.1,33.4,96,67,29,30.39,30.20,1,0,6,0.00
2013-8-25,79.9,62.9,47.6,58.8,50.4,40.9,100,69,29,30.43,30.21,3,0,10,0.00
2013-8-26,75.0,67.0,60.3,67.0,60.7,55.1,100,81,62,30.21,29.93,2,0,9,0.08
2013-8-27,82.4,71.2,65.1,67.0,62.0,52.1,100,75,47,29.95,29.88,3,0,6,0.01
2013-8-28,83.4,70.8,62.7,77.1,64.9,56.7,100,84,49,30.06,29.89,1,0,7,1.30
2013-8-29,66.4,64.4,63.0,64.8,62.2,57.7,100,93,81,30.14,30.00,1,0,7,0.28
2013-8-31,77.7,72.3,66.9,71.4,68.0,63.2,100,87,78,30.12,29.80,2,0,7,0.28
2013-9-1,83.2,71.1,66.8,70.9,66.4,58.4,100,86,62,29.92,29.83,1,0,6,0.84
2013-9-2,74.7,69.8,66.5,74.7,68.8,62.8,100,97,88,29.91,29.76,3,0,8,0.79
2013-9-3,72.2,65.7,58.4,67.3,60.6,50.5,100,85,64,29.87,29.75,3,0,10,0.03
2013-9-4,77.3,63.9,55.0,59.1,52.1,42.4,100,70,36,29.95,29.86,2,0,10,0.00
2013-9-5,70.0,59.1,46.7,59.3,46.9,26.9,100,69,30,30.22,29.90,2,0,10,0.00
2013-9-6,68.8,52.9,40.5,49.2,41.0,31.3,100,70,33,30.30,30.12,3,0,7,0.00
2013-9-7,75.3,59.5,47.1,58.9,47.7,37.7,100,70,30,30.12,29.88,2,0,10,0.00
2013-9-8,68.2,59.3,46.5,57.2,45.7,30.4,89,63,38,30.15,29.79,3,0,14,0.00
2013-9-9,67.6,53.4,39.8,50.4,42.4,36.9,100,71,37,30.29,30.14,2,0,11,0.00
2013-9-10,71.9,62.1,52.1,67.4,58.6,45.1,96,88,81,30.17,30.07,1,0,7,0.06
2013-9-11,88.5,74.5,66.1,75.5,66.5,58.4,100,79,44,30.11,29.95,6,0,18,0.35
2013-9-12,79.6,68.8,65.1,75.4,66.7,62.5,100,94,73,29.98,29.71,5,0,9,1.32
2013-9-13,70.4,63.9,56.3,68.0,59.4,51.1,100,86,65,29.83,29.66,3,0,13,0.20
2013-9-14,65.6,56.1,48.6,51.4,48.2,44.1,96,76,57,30.10,29.83,2,0,12,0.00
2013-9-15,68.9,55.0,43.7,53.2,46.3,32.8,100,77,33,30.21,30.07,0,0,0,0.00
2013-9-16,65.6,54.7,42.8,55.5,47.0,32.5,96,77,50,30.32,30.05,3,0,10,0.02
2013-9-17,64.9,48.9,38.3,46.2,38.5,30.5,100,72,36,30.49,30.32,2,0,9,0.00
2013-9-18,72.0,53.4,38.7,53.1,42.7,28.9,100,74,30,30.38,30.17,2,0,7,0.00
2013-9-19,76.4,58.1,45.0,57.3,48.0,37.3,100,75,33,30.21,30.08,1,0,5,0.00
2013-9-20,76.9,59.7,47.7,56.8,50.9,45.0,100,76,45,30.16,30.03,0,0,5,0.00
2013-9-21,73.4,61.7,50.1,62.3,55.9,50.1,100,83,55,30.05,29.74,5,0,13,0.00
2013-9-22,68.1,59.7,49.1,62.4,51.0,37.6,100,75,45,29.88,29.63,3,0,12,0.68
2013-9-23,60.3,49.1,42.2,41.1,37.0,31.5,76,64,47,30.05,29.88,5,0,13,0.00
2013-9-24,66.0,51.7,43.1,43.6,38.5,33.4,79,62,39,30.04,29.88,2,0,12,0.00
2013-9-25,69.2,54.6,46.0,50.3,45.0,39.9,100,72,48,30.04,29.93,2,0,9,0.00
2013-9-26,68.2,55.7,46.4,49.1,44.7,37.6,92,69,41,30.19,30.03,1,0,8,0.00
2013-9-27,66.7,55.9,49.9,52.0,48.1,39.1,100,77,48,30.32,30.19,0,0,3,0.00
2013-9-28,72.3,55.4,45.1,54.8,46.4,34.9,100,76,34,30.40,30.32,1,0,6,0.00
2013-9-29,70.5,54.1,44.0,59.3,47.5,40.6,100,81,46,30.31,30.16,0,0,0,0.00
2013-9-30,71.4,53.2,39.7,58.6,46.1,33.5,100,81,42,30.17,30.01,1,0,6,0.00
2013-10-1,74.2,57.0,44.2,57.8,48.3,39.9,100,78,34,30.05,29.91,2,0,9,0.00
2013-10-2,76.3,61.6,50.7,59.2,52.6,44.9,100,76,45,30.00,29.88,5,0,13,0.00
2013-10-3,74.2,59.8,49.1,56.7,48.6,34.8,100,72,31,30.16,30.00,0,0,6,0.00
2013-10-4,62.9,55.3,47.4,56.4,50.7,45.3,100,86,56,30.17,30.10,0,0,0,0.04
2013-10-5,63.5,58.1,55.7,55.8,49.3,41.2,96,74,55,30.18,30.11,0,0,0,0.00
2013-10-6,57.8,51.6,48.3,55.8,48.2,36.5,100,89,57,30.30,30.16,0,0,0,0.49
2013-10-7,69.6,56.8,50.6,64.0,54.8,46.0,100,94,73,30.19,29.78,7,0,25,0.83
2013-10-8,63.3,51.0,39.2,47.3,37.6,22.1,92,64,33,30.44,29.95,3,0,13,0.00
2013-10-9,61.0,45.3,34.4,47.9,37.8,30.0,100,79,39,30.55,30.42,0,0,3,0.00
2013-10-10,59.1,48.4,35.7,53.5,42.9,35.7,100,84,49,30.42,30.24,0,0,0,0.00
2013-10-11,68.1,52.9,42.4,57.0,45.9,39.0,100,81,42,30.23,30.16,0,0,6,0.00
2013-10-12,53.7,49.7,43.7,51.2,47.4,42.4,100,92,81,30.45,30.22,0,0,0,0.01
2013-10-13,57.9,49.0,40.1,51.6,45.1,40.1,100,88,63,30.49,30.42,0,0,3,0.00
2013-10-14,66.8,51.1,37.2,53.1,44.2,37.2,100,80,48,30.42,30.25,0,0,5,0.00
2013-10-15,61.8,55.8,50.7,53.9,49.6,45.5,96,81,64,30.32,30.22,0,0,0,0.00
2013-10-16,62.1,53.6,47.2,53.5,48.6,38.7,100,85,48,30.22,29.95,0,0,0,0.00
2013-10-17,70.6,56.3,47.9,62.4,47.3,31.3,100,77,32,29.94,29.75,2,0,12,0.01
2013-10-18,63.2,53.7,44.5,53.6,45.1,32.5,100,75,46,29.94,29.63,6,0,16,0.22
2013-10-19,64.1,50.4,38.0,45.4,38.6,31.5,96,67,36,30.00,29.77,6,0,11,0.00
2013-10-20,58.5,49.0,39.5,47.4,34.9,23.4,100,62,35,30.05,29.71,5,0,15,0.02
2013-10-21,64.1,48.4,34.4,43.9,36.9,30.6,96,69,34,30.13,29.99,5,0,14,0.00
2013-10-22,58.5,48.7,40.1,56.2,42.2,26.5,92,79,56,29.99,29.75,5,0,10,0.00
2013-10-23,52.7,42.7,32.4,41.2,32.5,22.1,96,71,38,29.83,29.62,7,0,11,0.00
2013-10-24,47.4,41.7,34.9,38.9,27.0,21.6,85,57,39,29.91,29.68,6,1,16,0.00
2013-10-25,47.2,38.1,30.1,38.0,26.5,16.9,96,66,38,30.15,29.91,6,0,17,0.00
2013-10-26,49.0,39.6,28.6,37.8,26.9,20.9,96,65,35,30.15,29.88,6,0,14,0.00
2013-10-27,52.9,43.9,34.1,35.3,27.8,19.2,78,54,37,30.07,29.80,5,0,14,0.00
2013-10-28,55.1,39.6,30.2,35.6,27.8,14.9,96,66,44,30.38,30.07,7,0,15,0.00
2013-10-29,47.8,33.7,23.9,28.8,20.5,1.3,96,64,23,30.50,30.38,0,0,7,0.00
2013-10-30,48.8,36.4,27.7,34.2,28.0,21.4,96,73,49,30.39,30.22,3,0,13,0.01
2013-10-31,56.9,42.0,30.5,56.9,40.4,28.8,100,94,82,30.27,29.78,2,0,9,0.25
2013-11-1,64.6,57.9,47.6,60.5,52.3,42.0,100,82,60,29.77,29.42,10,2,22,0.44
2013-11-2,61.6,48.9,39.4,47.6,40.4,30.7,100,77,37,29.80,29.63,7,0,9,0.08
2013-11-3,43.7,36.4,29.2,42.5,21.2,6.6,100,57,30,30.45,29.80,6,1,14,0.00
2013-11-4,42.8,31.0,24.5,27.4,18.2,1.2,88,64,27,30.72,30.45,5,0,8,0.00
2013-11-5,48.5,34.6,23.7,31.8,24.8,18.0,91,71,40,30.73,30.50,3,0,11,0.00
2013-11-6,57.4,45.9,34.9,43.2,36.4,29.7,91,71,47,30.51,30.02,6,1,16,0.00
2013-11-7,57.3,49.8,37.0,55.3,42.8,27.8,93,77,64,30.03,29.72,5,0,12,0.12
2013-11-8,44.5,35.8,28.5,38.8,25.6,17.6,93,67,46,30.08,29.85,5,0,17,0.00
2013-11-9,42.6,36.1,29.1,28.8,19.9,12.9,75,52,37,30.21,30.03,3,0,12,0.00
2013-11-10,44.2,38.2,32.1,40.6,33.5,22.5,100,84,61,30.03,29.75,5,0,17,0.06
2013-11-11,48.9,40.3,34.3,28.8,23.2,16.6,69,51,32,30.11,29.88,6,1,16,0.00
2013-11-12,41.7,31.6,25.4,30.8,17.2,10.4,81,55,44,30.19,29.89,6,0,15,0.00
2013-11-13,32.9,26.4,21.1,13.3,10.1,3.3,64,50,35,30.31,30.12,5,0,14,0.00
2013-11-14,47.0,34.3,26.2,28.4,20.3,11.7,92,59,38,30.12,30.05,7,0,15,0.00
2013-11-15,53.5,37.7,28.3,41.0,25.6,10.7,91,68,23,30.21,30.12,3,0,12,0.00
2013-11-16,57.0,41.3,32.4,35.2,28.7,13.7,88,65,24,30.34,30.19,0,0,8,0.00
2013-11-17,43.3,38.0,29.8,43.3,36.6,27.5,100,95,85,30.34,29.87,0,0,0,0.17
2013-11-18,60.1,49.5,40.1,55.0,39.1,22.8,100,71,34,29.87,29.53,6,0,18,0.39
2013-11-19,43.3,35.0,28.3,29.7,16.7,11.1,61,47,38,30.32,29.68,6,1,18,0.00
2013-11-20,38.4,29.0,23.6,20.4,10.9,1.9,80,48,27,30.64,30.32,5,0,16,0.00
2013-11-21,44.5,31.4,17.5,25.8,16.1,1.5,88,60,19,30.66,30.37,6,0,12,0.00
2013-11-22,40.7,37.7,34.1,40.2,35.1,25.0,100,91,72,30.37,29.82,0,0,5,0.21
2013-11-23,41.0,34.4,25.4,41.0,21.7,8.4,100,62,34,29.95,29.77,6,1,18,0.00
2013-11-24,26.3,19.8,15.3,22.8,0.2,-10.0,87,43,31,30.19,29.79,9,3,30,0.00
2013-11-25,30.1,21.5,12.7,11.7,-3.9,-12.8,51,33,18,30.37,30.19,6,0,16,0.00
2013-11-26,36.0,31.3,26.8,30.2,21.8,9.7,95,69,48,30.32,30.08,5,0,10,0.01
2013-11-27,41.9,36.1,31.4,41.8,34.6,25.2,100,94,71,30.08,29.28,7,0,17,0.39
2013-11-28,34.0,25.7,15.9,25.6,9.7,-1.8,75,52,31,30.42,29.46,7,2,21,0.00
2013-11-29,28.6,19.5,12.6,15.4,6.4,-1.7,87,60,28,30.74,30.41,6,0,10,0.00
2013-11-30,30.5,20.4,6.5,16.6,10.3,2.5,87,67,42,30.80,30.42,5,0,9,0.00
2013-12-1,36.4,32.3,27.4,34.8,27.9,16.5,100,84,62,30.41,30.05,1,0,6,0.00
2013-12-2,39.6,34.9,31.5,37.4,33.5,30.1,100,95,85,30.05,29.94,0,0,0,0.00
2013-12-3,47.1,35.4,28.8,41.8,30.2,17.1,100,84,44,29.97,29.89,2,0,9,0.00
2013-12-4,41.7,32.3,27.4,29.5,24.2,17.1,95,74,50,30.21,29.97,6,0,11,0.00
2013-12-5,36.0,33.6,26.9,36.0,31.8,24.7,100,93,77,30.23,29.92,0,0,0,0.05
2013-12-6,44.2,39.3,32.5,44.1,34.9,22.5,100,85,61,30.17,29.88,5,0,9,0.08
2013-12-7,35.3,30.7,21.9,33.6,22.0,9.5,96,72,46,30.44,30.09,5,0,13,0.06
2013-12-8,29.2,25.7,19.8,22.4,15.9,8.8,87,68,46,30.57,30.44,3,0,10,0.00
2013-12-9,31.0,27.3,23.1,30.8,23.9,10.0,100,87,56,30.50,29.87,2,0,7,0.00
2013-12-10,33.5,26.9,16.3,31.4,23.5,8.3,96,87,70,29.96,29.80,1,0,10,0.00
2013-12-11,29.5,22.1,14.3,19.4,12.1,5.7,95,67,46,30.16,29.96,6,0,22,0.06
2013-12-12,21.7,15.7,8.6,17.3,2.8,-6.9,87,58,33,30.26,30.00,5,1,16,0.00
2013-12-13,25.9,14.9,3.9,20.6,6.9,-7.3,84,71,57,30.40,29.94,5,0,14,0.00
2013-12-14,14.7,9.2,3.3,8.0,-2.9,-10.4,83,59,37,30.58,30.21,0,0,0,0.00
2013-12-15,30.2,19.4,11.1,26.8,15.2,7.6,91,83,74,30.21,29.46,5,0,16,0.00
2013-12-16,25.2,16.6,5.5,17.9,4.6,-6.5,91,62,34,30.18,29.70,7,1,17,0.03
2013-12-17,14.6,6.3,-8.3,11.4,-0.0,-13.3,87,75,54,30.26,30.00,2,0,6,0.00
2013-12-18,32.9,21.1,11.7,20.8,14.2,7.8,91,75,53,30.03,29.91,5,0,12,0.13
2013-12-19,38.0,27.7,20.4,26.8,19.4,12.2,91,72,47,30.10,29.95,6,0,12,0.09
2013-12-20,39.6,33.7,27.6,34.8,28.5,23.4,96,82,64,30.12,29.92,1,0,7,0.09
2013-12-21,48.6,38.5,33.6,42.6,35.7,31.8,100,90,67,29.95,29.86,2,0,8,0.08
2013-12-22,38.5,34.7,31.6,38.3,34.4,31.0,100,98,93,30.04,29.80,0,0,5,0.16
2013-12-23,35.4,32.9,31.0,35.4,32.5,30.3,100,98,92,30.13,29.99,0,0,0,0.49
2013-12-24,33.4,27.8,18.2,32.4,16.5,5.1,96,63,48,30.20,30.07,7,1,15,0.00
2013-12-25,22.5,15.5,8.3,12.9,2.0,-5.3,70,55,38,30.50,30.20,6,0,15,0.00
2013-12-26,26.6,20.3,13.9,23.2,15.8,5.6,100,83,67,30.47,30.09,0,0,0,0.00
2013-12-27,31.4,23.3,16.3,26.7,16.5,10.8,96,76,53,30.25,30.17,6,0,12,0.07
2013-12-28,40.6,29.3,17.6,32.6,22.6,14.4,95,77,52,30.19,29.97,5,0,12,0.09
2013-12-29,36.9,32.2,27.0,35.6,30.6,24.7,100,94,78,30.04,29.55,0,0,0,0.35
2013-12-30,35.5,26.5,8.7,34.3,19.7,-0.3,100,76,54,30.17,29.57,6,0,13,0.11
2013-12-31,21.5,12.7,2.1,12.1,2.6,-5.8,91,65,41,30.17,30.01,1,0,9,0.01
2014-1-1,23.6,13.0,2.5,11.7,3.7,-3.6,87,67,47,30.37,30.14,6,0,15,0.00
2014-1-2,15.3,9.1,0.5,9.4,3.4,-5.9,85,77,71,30.36,29.92,6,0,10,0.00